sensor_id;sensor_type;location;lat;lon;timestamp;P1;durP1;ratioP1;P2;durP2;ratioP2
48993;SDS011;34804;49.214;12.276;2022-12-07T00:01:45;7.30;;;4.20;;
48993;SDS011;34804;49.214;12.276;2022-12-07T00:04:13;7.05;;;3.95;;
48993;SDS011;34804;49.214;12.276;2022-12-07T00:06:43;9.40;;;4.10;;
48993;SDS011;34804;49.214;12.276;2022-12-07T00:09:15;7.50;;;4.38;;
48993;SDS011;34804;49.214;12.276;2022-12-07T00:11:43;8.40;;;4.63;;
48993;SDS011;34804;49.214;12.276;2022-12-07T00:14:11;8.13;;;4.47;;
48993;SDS011;34804;49.214;12.276;2022-12-07T00:16:40;9.38;;;5.65;;
48993;SDS011;34804;49.214;12.276;2022-12-07T00:19:08;10.85;;;4.85;;
48993;SDS011;34804;49.214;12.276;2022-12-07T00:21:36;9.35;;;5.45;;
48993;SDS011;34804;49.214;12.276;2022-12-07T00:24:03;9.63;;;5.40;;
48993;SDS011;34804;49.214;12.276;2022-12-07T00:26:32;8.55;;;5.30;;
48993;SDS011;34804;49.214;12.276;2022-12-07T00:29:02;9.93;;;5.35;;
48993;SDS011;34804;49.214;12.276;2022-12-07T00:31:36;9.45;;;5.38;;
48993;SDS011;34804;49.214;12.276;2022-12-07T00:34:12;9.32;;;5.15;;
48993;SDS011;34804;49.214;12.276;2022-12-07T00:36:40;9.55;;;5.30;;
48993;SDS011;34804;49.214;12.276;2022-12-07T00:39:07;9.90;;;5.50;;
48993;SDS011;34804;49.214;12.276;2022-12-07T00:41:34;10.07;;;5.72;;
48993;SDS011;34804;49.214;12.276;2022-12-07T00:44:01;12.52;;;5.22;;
48993;SDS011;34804;49.214;12.276;2022-12-07T00:46:28;9.85;;;5.35;;
48993;SDS011;34804;49.214;12.276;2022-12-07T00:48:56;10.38;;;5.80;;
48993;SDS011;34804;49.214;12.276;2022-12-07T00:51:24;8.88;;;5.22;;
48993;SDS011;34804;49.214;12.276;2022-12-07T00:53:51;9.52;;;5.30;;
48993;SDS011;34804;49.214;12.276;2022-12-07T00:56:20;8.70;;;4.95;;
48993;SDS011;34804;49.214;12.276;2022-12-07T01:01:22;9.10;;;5.22;;
48993;SDS011;34804;49.214;12.276;2022-12-07T01:03:50;9.40;;;4.88;;
48993;SDS011;34804;49.214;12.276;2022-12-07T01:06:18;11.68;;;5.80;;
48993;SDS011;34804;49.214;12.276;2022-12-07T01:08:45;9.98;;;6.50;;
48993;SDS011;34804;49.214;12.276;2022-12-07T01:11:13;11.77;;;6.25;;
48993;SDS011;34804;49.214;12.276;2022-12-07T01:13:42;10.30;;;6.03;;
48993;SDS011;34804;49.214;12.276;2022-12-07T01:16:11;12.05;;;6.25;;
48993;SDS011;34804;49.214;12.276;2022-12-07T01:18:40;11.50;;;7.05;;
48993;SDS011;34804;49.214;12.276;2022-12-07T01:23:37;11.18;;;6.70;;
48993;SDS011;34804;49.214;12.276;2022-12-07T01:26:05;9.93;;;6.20;;
48993;SDS011;34804;49.214;12.276;2022-12-07T01:28:33;11.23;;;7.45;;
48993;SDS011;34804;49.214;12.276;2022-12-07T01:31:01;11.40;;;6.75;;
48993;SDS011;34804;49.214;12.276;2022-12-07T01:33:31;13.20;;;7.50;;
48993;SDS011;34804;49.214;12.276;2022-12-07T01:36:16;11.02;;;6.90;;
48993;SDS011;34804;49.214;12.276;2022-12-07T01:38:46;11.88;;;6.88;;
48993;SDS011;34804;49.214;12.276;2022-12-07T01:41:18;12.07;;;7.18;;
48993;SDS011;34804;49.214;12.276;2022-12-07T01:46:56;11.00;;;6.60;;
48993;SDS011;34804;49.214;12.276;2022-12-07T01:49:40;12.10;;;7.20;;
48993;SDS011;34804;49.214;12.276;2022-12-07T01:54:54;12.63;;;7.55;;
48993;SDS011;34804;49.214;12.276;2022-12-07T01:57:26;14.52;;;6.95;;
48993;SDS011;34804;49.214;12.276;2022-12-07T01:59:53;12.38;;;7.65;;
48993;SDS011;34804;49.214;12.276;2022-12-07T02:02:23;12.98;;;7.72;;
48993;SDS011;34804;49.214;12.276;2022-12-07T02:04:54;12.70;;;8.35;;
48993;SDS011;34804;49.214;12.276;2022-12-07T02:07:23;14.60;;;7.97;;
48993;SDS011;34804;49.214;12.276;2022-12-07T02:09:51;11.52;;;7.32;;
48993;SDS011;34804;49.214;12.276;2022-12-07T02:12:17;13.20;;;7.63;;
48993;SDS011;34804;49.214;12.276;2022-12-07T02:14:45;13.85;;;7.75;;
48993;SDS011;34804;49.214;12.276;2022-12-07T02:17:14;12.70;;;7.70;;
48993;SDS011;34804;49.214;12.276;2022-12-07T02:31:08;14.70;;;9.10;;
48993;SDS011;34804;49.214;12.276;2022-12-07T02:33:41;12.65;;;7.78;;
48993;SDS011;34804;49.214;12.276;2022-12-07T02:36:14;15.40;;;7.88;;
48993;SDS011;34804;49.214;12.276;2022-12-07T02:43:52;11.90;;;7.80;;
48993;SDS011;34804;49.214;12.276;2022-12-07T02:46:38;12.82;;;8.43;;
48993;SDS011;34804;49.214;12.276;2022-12-07T02:49:10;13.57;;;8.13;;
48993;SDS011;34804;49.214;12.276;2022-12-07T02:51:41;13.32;;;8.13;;
48993;SDS011;34804;49.214;12.276;2022-12-07T02:54:16;12.82;;;7.90;;
48993;SDS011;34804;49.214;12.276;2022-12-07T03:05:16;12.73;;;7.82;;
48993;SDS011;34804;49.214;12.276;2022-12-07T03:08:16;13.73;;;8.30;;
48993;SDS011;34804;49.214;12.276;2022-12-07T03:10:58;12.63;;;7.90;;
48993;SDS011;34804;49.214;12.276;2022-12-07T03:13:31;12.27;;;7.88;;
48993;SDS011;34804;49.214;12.276;2022-12-07T03:16:26;11.98;;;7.70;;
48993;SDS011;34804;49.214;12.276;2022-12-07T03:18:58;11.93;;;7.82;;
48993;SDS011;34804;49.214;12.276;2022-12-07T03:21:31;12.40;;;7.63;;
48993;SDS011;34804;49.214;12.276;2022-12-07T03:24:03;13.60;;;8.18;;
48993;SDS011;34804;49.214;12.276;2022-12-07T03:26:37;10.82;;;7.35;;
48993;SDS011;34804;49.214;12.276;2022-12-07T03:29:09;14.93;;;7.97;;
48993;SDS011;34804;49.214;12.276;2022-12-07T03:31:44;13.98;;;8.10;;
48993;SDS011;34804;49.214;12.276;2022-12-07T03:34:18;14.52;;;7.72;;
48993;SDS011;34804;49.214;12.276;2022-12-07T03:36:55;11.75;;;7.57;;
48993;SDS011;34804;49.214;12.276;2022-12-07T03:39:29;11.77;;;7.43;;
48993;SDS011;34804;49.214;12.276;2022-12-07T03:42:06;11.20;;;6.97;;
48993;SDS011;34804;49.214;12.276;2022-12-07T03:44:34;10.48;;;6.88;;
48993;SDS011;34804;49.214;12.276;2022-12-07T03:47:03;13.48;;;7.07;;
48993;SDS011;34804;49.214;12.276;2022-12-07T03:49:51;11.80;;;7.25;;
48993;SDS011;34804;49.214;12.276;2022-12-07T03:52:32;13.23;;;7.30;;
48993;SDS011;34804;49.214;12.276;2022-12-07T03:55:46;13.90;;;6.97;;
48993;SDS011;34804;49.214;12.276;2022-12-07T03:57:56;14.98;;;8.20;;
48993;SDS011;34804;49.214;12.276;2022-12-07T04:00:27;11.55;;;7.45;;
48993;SDS011;34804;49.214;12.276;2022-12-07T04:02:54;12.90;;;7.97;;
48993;SDS011;34804;49.214;12.276;2022-12-07T04:05:22;12.18;;;7.95;;
48993;SDS011;34804;49.214;12.276;2022-12-07T04:07:50;10.98;;;7.03;;
48993;SDS011;34804;49.214;12.276;2022-12-07T04:10:17;11.98;;;7.85;;
48993;SDS011;34804;49.214;12.276;2022-12-07T04:12:44;12.02;;;7.38;;
48993;SDS011;34804;49.214;12.276;2022-12-07T04:15:10;11.30;;;7.25;;
48993;SDS011;34804;49.214;12.276;2022-12-07T04:17:37;13.05;;;7.65;;
48993;SDS011;34804;49.214;12.276;2022-12-07T04:20:04;11.88;;;7.10;;
48993;SDS011;34804;49.214;12.276;2022-12-07T04:22:32;11.90;;;6.85;;
48993;SDS011;34804;49.214;12.276;2022-12-07T04:24:59;12.68;;;7.50;;
48993;SDS011;34804;49.214;12.276;2022-12-07T04:27:26;10.88;;;6.88;;
48993;SDS011;34804;49.214;12.276;2022-12-07T04:29:52;11.40;;;7.03;;
48993;SDS011;34804;49.214;12.276;2022-12-07T04:32:19;11.15;;;6.32;;
48993;SDS011;34804;49.214;12.276;2022-12-07T04:34:46;12.10;;;7.07;;
48993;SDS011;34804;49.214;12.276;2022-12-07T04:37:20;11.30;;;7.25;;
48993;SDS011;34804;49.214;12.276;2022-12-07T04:39:47;12.95;;;7.68;;
48993;SDS011;34804;49.214;12.276;2022-12-07T04:42:14;12.40;;;7.50;;
48993;SDS011;34804;49.214;12.276;2022-12-07T04:44:40;10.98;;;6.53;;
48993;SDS011;34804;49.214;12.276;2022-12-07T04:47:07;12.85;;;7.65;;
48993;SDS011;34804;49.214;12.276;2022-12-07T04:49:34;11.25;;;6.97;;
48993;SDS011;34804;49.214;12.276;2022-12-07T04:52:01;10.55;;;6.72;;
48993;SDS011;34804;49.214;12.276;2022-12-07T04:54:28;11.05;;;6.53;;
48993;SDS011;34804;49.214;12.276;2022-12-07T04:56:55;11.05;;;7.13;;
48993;SDS011;34804;49.214;12.276;2022-12-07T04:59:21;12.25;;;7.13;;
48993;SDS011;34804;49.214;12.276;2022-12-07T05:01:48;11.63;;;6.78;;
48993;SDS011;34804;49.214;12.276;2022-12-07T05:04:15;11.50;;;7.00;;
48993;SDS011;34804;49.214;12.276;2022-12-07T05:06:43;10.35;;;6.75;;
48993;SDS011;34804;49.214;12.276;2022-12-07T05:09:10;11.77;;;7.15;;
48993;SDS011;34804;49.214;12.276;2022-12-07T05:11:37;13.15;;;7.05;;
48993;SDS011;34804;49.214;12.276;2022-12-07T05:14:05;13.70;;;7.13;;
48993;SDS011;34804;49.214;12.276;2022-12-07T05:16:35;13.13;;;7.57;;
48993;SDS011;34804;49.214;12.276;2022-12-07T05:19:02;12.77;;;8.20;;
48993;SDS011;34804;49.214;12.276;2022-12-07T05:21:30;13.85;;;7.88;;
48993;SDS011;34804;49.214;12.276;2022-12-07T05:23:56;14.02;;;7.93;;
48993;SDS011;34804;49.214;12.276;2022-12-07T05:26:23;14.60;;;8.40;;
48993;SDS011;34804;49.214;12.276;2022-12-07T05:28:54;13.00;;;7.95;;
48993;SDS011;34804;49.214;12.276;2022-12-07T05:31:22;14.50;;;8.30;;
48993;SDS011;34804;49.214;12.276;2022-12-07T05:33:50;13.75;;;8.57;;
48993;SDS011;34804;49.214;12.276;2022-12-07T05:36:17;12.65;;;7.63;;
48993;SDS011;34804;49.214;12.276;2022-12-07T05:38:44;13.93;;;8.32;;
48993;SDS011;34804;49.214;12.276;2022-12-07T05:41:15;14.77;;;8.95;;
48993;SDS011;34804;49.214;12.276;2022-12-07T05:44:02;15.70;;;8.45;;
48993;SDS011;34804;49.214;12.276;2022-12-07T05:46:29;18.58;;;10.50;;
48993;SDS011;34804;49.214;12.276;2022-12-07T05:48:56;16.02;;;9.38;;
48993;SDS011;34804;49.214;12.276;2022-12-07T05:51:23;16.52;;;9.25;;
48993;SDS011;34804;49.214;12.276;2022-12-07T05:53:50;14.48;;;8.65;;
48993;SDS011;34804;49.214;12.276;2022-12-07T05:56:17;16.25;;;9.70;;
48993;SDS011;34804;49.214;12.276;2022-12-07T05:58:43;16.35;;;9.68;;
48993;SDS011;34804;49.214;12.276;2022-12-07T06:01:29;18.15;;;9.98;;
48993;SDS011;34804;49.214;12.276;2022-12-07T06:03:56;17.98;;;9.68;;
48993;SDS011;34804;49.214;12.276;2022-12-07T06:06:22;21.20;;;11.32;;
48993;SDS011;34804;49.214;12.276;2022-12-07T06:08:49;19.67;;;11.65;;
48993;SDS011;34804;49.214;12.276;2022-12-07T06:11:16;20.42;;;11.15;;
48993;SDS011;34804;49.214;12.276;2022-12-07T06:14:02;20.98;;;10.98;;
48993;SDS011;34804;49.214;12.276;2022-12-07T06:16:28;19.02;;;10.65;;
48993;SDS011;34804;49.214;12.276;2022-12-07T06:18:55;20.63;;;11.95;;
48993;SDS011;34804;49.214;12.276;2022-12-07T06:21:22;20.45;;;11.45;;
48993;SDS011;34804;49.214;12.276;2022-12-07T06:23:49;22.10;;;12.13;;
48993;SDS011;34804;49.214;12.276;2022-12-07T06:26:16;20.42;;;11.02;;
48993;SDS011;34804;49.214;12.276;2022-12-07T06:28:42;19.45;;;11.05;;
48993;SDS011;34804;49.214;12.276;2022-12-07T06:31:09;19.52;;;11.50;;
48993;SDS011;34804;49.214;12.276;2022-12-07T06:33:41;19.92;;;11.20;;
48993;SDS011;34804;49.214;12.276;2022-12-07T06:36:08;21.75;;;11.38;;
48993;SDS011;34804;49.214;12.276;2022-12-07T06:38:36;19.70;;;11.93;;
48993;SDS011;34804;49.214;12.276;2022-12-07T06:41:02;18.98;;;11.90;;
48993;SDS011;34804;49.214;12.276;2022-12-07T06:43:29;23.15;;;11.30;;
48993;SDS011;34804;49.214;12.276;2022-12-07T06:45:56;18.77;;;11.63;;
48993;SDS011;34804;49.214;12.276;2022-12-07T06:48:23;19.55;;;11.43;;
48993;SDS011;34804;49.214;12.276;2022-12-07T06:50:50;21.38;;;12.20;;
48993;SDS011;34804;49.214;12.276;2022-12-07T06:53:21;30.55;;;14.43;;
48993;SDS011;34804;49.214;12.276;2022-12-07T06:55:48;28.08;;;14.07;;
48993;SDS011;34804;49.214;12.276;2022-12-07T06:58:15;18.88;;;10.77;;
48993;SDS011;34804;49.214;12.276;2022-12-07T07:00:43;20.65;;;11.75;;
48993;SDS011;34804;49.214;12.276;2022-12-07T07:03:10;19.58;;;11.07;;
48993;SDS011;34804;49.214;12.276;2022-12-07T07:05:37;17.27;;;10.65;;
48993;SDS011;34804;49.214;12.276;2022-12-07T07:08:04;19.52;;;10.43;;
48993;SDS011;34804;49.214;12.276;2022-12-07T07:10:48;18.13;;;10.43;;
48993;SDS011;34804;49.214;12.276;2022-12-07T07:13:15;18.10;;;9.30;;
48993;SDS011;34804;49.214;12.276;2022-12-07T07:15:42;18.10;;;9.70;;
48993;SDS011;34804;49.214;12.276;2022-12-07T07:18:09;16.63;;;9.70;;
48993;SDS011;34804;49.214;12.276;2022-12-07T07:20:36;15.65;;;9.20;;
48993;SDS011;34804;49.214;12.276;2022-12-07T07:23:03;17.85;;;10.27;;
48993;SDS011;34804;49.214;12.276;2022-12-07T07:25:30;20.48;;;11.40;;
48993;SDS011;34804;49.214;12.276;2022-12-07T07:27:58;18.08;;;10.85;;
48993;SDS011;34804;49.214;12.276;2022-12-07T07:30:25;17.80;;;10.77;;
48993;SDS011;34804;49.214;12.276;2022-12-07T07:33:00;18.65;;;10.80;;
48993;SDS011;34804;49.214;12.276;2022-12-07T07:35:28;19.65;;;10.70;;
48993;SDS011;34804;49.214;12.276;2022-12-07T07:37:56;18.60;;;10.40;;
48993;SDS011;34804;49.214;12.276;2022-12-07T07:40:23;18.02;;;10.18;;
48993;SDS011;34804;49.214;12.276;2022-12-07T07:42:52;18.45;;;10.68;;
48993;SDS011;34804;49.214;12.276;2022-12-07T07:45:20;19.08;;;11.23;;
48993;SDS011;34804;49.214;12.276;2022-12-07T07:47:48;19.25;;;11.32;;
48993;SDS011;34804;49.214;12.276;2022-12-07T07:50:16;18.83;;;10.77;;
48993;SDS011;34804;49.214;12.276;2022-12-07T07:52:43;20.02;;;11.25;;
48993;SDS011;34804;49.214;12.276;2022-12-07T07:55:11;20.67;;;10.52;;
48993;SDS011;34804;49.214;12.276;2022-12-07T07:57:38;20.20;;;11.43;;
48993;SDS011;34804;49.214;12.276;2022-12-07T08:00:10;20.73;;;11.07;;
48993;SDS011;34804;49.214;12.276;2022-12-07T08:02:39;20.30;;;11.27;;
48993;SDS011;34804;49.214;12.276;2022-12-07T08:05:06;18.40;;;10.80;;
48993;SDS011;34804;49.214;12.276;2022-12-07T08:07:33;21.25;;;12.20;;
48993;SDS011;34804;49.214;12.276;2022-12-07T08:10:00;18.48;;;10.98;;
48993;SDS011;34804;49.214;12.276;2022-12-07T08:12:28;20.30;;;11.07;;
48993;SDS011;34804;49.214;12.276;2022-12-07T08:14:55;20.85;;;10.90;;
48993;SDS011;34804;49.214;12.276;2022-12-07T08:17:22;18.45;;;10.50;;
48993;SDS011;34804;49.214;12.276;2022-12-07T08:19:49;17.85;;;11.48;;
48993;SDS011;34804;49.214;12.276;2022-12-07T08:22:15;18.15;;;11.13;;
48993;SDS011;34804;49.214;12.276;2022-12-07T08:24:42;17.98;;;11.07;;
48993;SDS011;34804;49.214;12.276;2022-12-07T08:27:09;21.38;;;11.40;;
48993;SDS011;34804;49.214;12.276;2022-12-07T08:29:36;17.27;;;10.73;;
48993;SDS011;34804;49.214;12.276;2022-12-07T08:32:03;19.17;;;11.25;;
48993;SDS011;34804;49.214;12.276;2022-12-07T08:34:35;23.73;;;11.10;;
48993;SDS011;34804;49.214;12.276;2022-12-07T08:37:03;20.23;;;11.02;;
48993;SDS011;34804;49.214;12.276;2022-12-07T08:39:29;20.15;;;11.60;;
48993;SDS011;34804;49.214;12.276;2022-12-07T08:41:58;18.95;;;10.82;;
48993;SDS011;34804;49.214;12.276;2022-12-07T08:44:25;18.35;;;10.07;;
48993;SDS011;34804;49.214;12.276;2022-12-07T08:46:53;19.67;;;10.18;;
48993;SDS011;34804;49.214;12.276;2022-12-07T08:49:35;20.17;;;10.85;;
48993;SDS011;34804;49.214;12.276;2022-12-07T08:52:05;18.67;;;10.82;;
48993;SDS011;34804;49.214;12.276;2022-12-07T08:54:33;18.75;;;10.60;;
48993;SDS011;34804;49.214;12.276;2022-12-07T08:57:02;19.00;;;10.60;;
48993;SDS011;34804;49.214;12.276;2022-12-07T08:59:30;18.33;;;10.07;;
48993;SDS011;34804;49.214;12.276;2022-12-07T09:01:58;18.85;;;10.25;;
48993;SDS011;34804;49.214;12.276;2022-12-07T09:04:25;17.63;;;10.00;;
48993;SDS011;34804;49.214;12.276;2022-12-07T09:06:53;21.42;;;10.25;;
48993;SDS011;34804;49.214;12.276;2022-12-07T09:09:21;18.52;;;10.57;;
48993;SDS011;34804;49.214;12.276;2022-12-07T09:11:47;19.15;;;9.85;;
48993;SDS011;34804;49.214;12.276;2022-12-07T09:14:14;17.27;;;10.00;;
48993;SDS011;34804;49.214;12.276;2022-12-07T09:16:41;17.00;;;9.45;;
48993;SDS011;34804;49.214;12.276;2022-12-07T09:19:08;18.17;;;10.43;;
48993;SDS011;34804;49.214;12.276;2022-12-07T09:21:35;17.17;;;10.65;;
48993;SDS011;34804;49.214;12.276;2022-12-07T09:24:02;16.73;;;9.48;;
48993;SDS011;34804;49.214;12.276;2022-12-07T09:26:29;17.75;;;10.43;;
48993;SDS011;34804;49.214;12.276;2022-12-07T09:28:56;19.05;;;10.48;;
48993;SDS011;34804;49.214;12.276;2022-12-07T09:31:23;18.17;;;9.80;;
48993;SDS011;34804;49.214;12.276;2022-12-07T09:33:55;20.10;;;10.65;;
48993;SDS011;34804;49.214;12.276;2022-12-07T09:36:24;18.45;;;9.20;;
48993;SDS011;34804;49.214;12.276;2022-12-07T09:38:51;18.67;;;9.77;;
48993;SDS011;34804;49.214;12.276;2022-12-07T09:41:18;15.48;;;8.57;;
48993;SDS011;34804;49.214;12.276;2022-12-07T09:43:46;15.75;;;9.93;;
48993;SDS011;34804;49.214;12.276;2022-12-07T09:46:13;16.13;;;8.60;;
48993;SDS011;34804;49.214;12.276;2022-12-07T09:48:44;16.27;;;9.38;;
48993;SDS011;34804;49.214;12.276;2022-12-07T09:51:18;15.30;;;8.93;;
48993;SDS011;34804;49.214;12.276;2022-12-07T09:53:50;17.33;;;9.35;;
48993;SDS011;34804;49.214;12.276;2022-12-07T09:56:19;15.02;;;7.82;;
48993;SDS011;34804;49.214;12.276;2022-12-07T09:58:48;16.08;;;9.07;;
48993;SDS011;34804;49.214;12.276;2022-12-07T10:01:20;16.42;;;9.25;;
48993;SDS011;34804;49.214;12.276;2022-12-07T10:03:55;15.57;;;7.88;;
48993;SDS011;34804;49.214;12.276;2022-12-07T10:06:33;14.77;;;7.85;;
48993;SDS011;34804;49.214;12.276;2022-12-07T10:09:00;13.93;;;7.93;;
48993;SDS011;34804;49.214;12.276;2022-12-07T10:11:34;16.17;;;8.32;;
48993;SDS011;34804;49.214;12.276;2022-12-07T10:14:12;15.05;;;8.60;;
48993;SDS011;34804;49.214;12.276;2022-12-07T10:16:41;16.40;;;8.52;;
48993;SDS011;34804;49.214;12.276;2022-12-07T10:22:15;16.67;;;9.63;;
48993;SDS011;34804;49.214;12.276;2022-12-07T10:24:43;14.10;;;8.30;;
48993;SDS011;34804;49.214;12.276;2022-12-07T10:27:20;14.38;;;7.90;;
48993;SDS011;34804;49.214;12.276;2022-12-07T10:29:52;14.90;;;7.82;;
48993;SDS011;34804;49.214;12.276;2022-12-07T10:37:51;15.95;;;9.15;;
48993;SDS011;34804;49.214;12.276;2022-12-07T10:40:33;15.95;;;9.00;;
48993;SDS011;34804;49.214;12.276;2022-12-07T10:48:41;16.38;;;9.40;;
48993;SDS011;34804;49.214;12.276;2022-12-07T10:57:27;16.70;;;8.63;;
48993;SDS011;34804;49.214;12.276;2022-12-07T11:00:00;15.73;;;8.40;;
48993;SDS011;34804;49.214;12.276;2022-12-07T11:05:29;16.70;;;8.65;;
48993;SDS011;34804;49.214;12.276;2022-12-07T11:08:38;15.23;;;9.00;;
48993;SDS011;34804;49.214;12.276;2022-12-07T11:11:19;15.00;;;8.23;;
48993;SDS011;34804;49.214;12.276;2022-12-07T11:25:22;14.70;;;8.27;;
48993;SDS011;34804;49.214;12.276;2022-12-07T11:28:45;12.98;;;7.25;;
48993;SDS011;34804;49.214;12.276;2022-12-07T11:33:19;13.30;;;7.30;;
48993;SDS011;34804;49.214;12.276;2022-12-07T11:38:37;15.68;;;7.90;;
48993;SDS011;34804;49.214;12.276;2022-12-07T11:41:23;14.82;;;7.80;;
48993;SDS011;34804;49.214;12.276;2022-12-07T11:46:34;14.88;;;7.43;;
48993;SDS011;34804;49.214;12.276;2022-12-07T11:49:20;13.35;;;7.30;;
48993;SDS011;34804;49.214;12.276;2022-12-07T11:51:57;13.32;;;7.55;;
48993;SDS011;34804;49.214;12.276;2022-12-07T11:54:32;16.88;;;7.57;;
48993;SDS011;34804;49.214;12.276;2022-12-07T11:57:28;12.85;;;7.35;;
48993;SDS011;34804;49.214;12.276;2022-12-07T12:00:06;13.02;;;6.63;;
48993;SDS011;34804;49.214;12.276;2022-12-07T12:02:43;12.55;;;7.15;;
48993;SDS011;34804;49.214;12.276;2022-12-07T12:05:17;13.80;;;7.05;;
48993;SDS011;34804;49.214;12.276;2022-12-07T12:07:45;13.55;;;7.15;;
48993;SDS011;34804;49.214;12.276;2022-12-07T12:13:19;12.07;;;6.65;;
48993;SDS011;34804;49.214;12.276;2022-12-07T12:19:37;14.02;;;7.00;;
48993;SDS011;34804;49.214;12.276;2022-12-07T12:22:06;14.25;;;6.88;;
48993;SDS011;34804;49.214;12.276;2022-12-07T12:24:37;12.65;;;7.22;;
48993;SDS011;34804;49.214;12.276;2022-12-07T12:27:15;12.77;;;7.00;;
48993;SDS011;34804;49.214;12.276;2022-12-07T12:30:01;14.65;;;6.78;;
48993;SDS011;34804;49.214;12.276;2022-12-07T12:32:41;13.90;;;7.18;;
48993;SDS011;34804;49.214;12.276;2022-12-07T12:40:42;14.38;;;6.88;;
48993;SDS011;34804;49.214;12.276;2022-12-07T12:46:35;12.73;;;6.88;;
48993;SDS011;34804;49.214;12.276;2022-12-07T12:54:36;13.27;;;7.40;;
48993;SDS011;34804;49.214;12.276;2022-12-07T12:57:24;13.32;;;6.88;;
48993;SDS011;34804;49.214;12.276;2022-12-07T13:20:53;16.17;;;7.50;;
48993;SDS011;34804;49.214;12.276;2022-12-07T13:23:30;13.68;;;7.18;;
48993;SDS011;34804;49.214;12.276;2022-12-07T13:31:18;13.25;;;7.43;;
48993;SDS011;34804;49.214;12.276;2022-12-07T13:33:55;13.90;;;7.10;;
48993;SDS011;34804;49.214;12.276;2022-12-07T13:36:26;13.27;;;6.68;;
48993;SDS011;34804;49.214;12.276;2022-12-07T13:38:58;13.45;;;7.07;;
48993;SDS011;34804;49.214;12.276;2022-12-07T13:41:27;12.98;;;7.35;;
48993;SDS011;34804;49.214;12.276;2022-12-07T13:44:14;13.18;;;7.13;;
48993;SDS011;34804;49.214;12.276;2022-12-07T13:49:29;12.50;;;6.93;;
48993;SDS011;34804;49.214;12.276;2022-12-07T13:52:12;12.13;;;6.75;;
48993;SDS011;34804;49.214;12.276;2022-12-07T13:54:49;14.82;;;7.57;;
48993;SDS011;34804;49.214;12.276;2022-12-07T13:57:29;14.27;;;7.82;;
48993;SDS011;34804;49.214;12.276;2022-12-07T13:59:57;14.30;;;7.35;;
48993;SDS011;34804;49.214;12.276;2022-12-07T14:02:28;13.98;;;7.18;;
48993;SDS011;34804;49.214;12.276;2022-12-07T14:05:08;13.63;;;7.05;;
48993;SDS011;34804;49.214;12.276;2022-12-07T14:07:59;13.68;;;7.32;;
48993;SDS011;34804;49.214;12.276;2022-12-07T14:10:31;12.27;;;6.75;;
48993;SDS011;34804;49.214;12.276;2022-12-07T14:13:26;16.13;;;7.75;;
48993;SDS011;34804;49.214;12.276;2022-12-07T14:15:54;14.20;;;7.75;;
48993;SDS011;34804;49.214;12.276;2022-12-07T14:23:36;14.50;;;7.38;;
48993;SDS011;34804;49.214;12.276;2022-12-07T14:26:11;14.55;;;7.47;;
48993;SDS011;34804;49.214;12.276;2022-12-07T14:28:40;13.88;;;7.50;;
48993;SDS011;34804;49.214;12.276;2022-12-07T14:31:12;15.30;;;7.65;;
48993;SDS011;34804;49.214;12.276;2022-12-07T14:33:50;14.23;;;7.50;;
48993;SDS011;34804;49.214;12.276;2022-12-07T14:36:17;15.60;;;8.23;;
48993;SDS011;34804;49.214;12.276;2022-12-07T14:38:43;13.52;;;7.97;;
48993;SDS011;34804;49.214;12.276;2022-12-07T14:41:12;11.88;;;6.93;;
48993;SDS011;34804;49.214;12.276;2022-12-07T14:44:04;13.70;;;7.20;;
48993;SDS011;34804;49.214;12.276;2022-12-07T14:46:57;12.20;;;6.57;;
48993;SDS011;34804;49.214;12.276;2022-12-07T14:49:44;14.05;;;7.18;;
48993;SDS011;34804;49.214;12.276;2022-12-07T14:52:15;13.98;;;6.55;;
48993;SDS011;34804;49.214;12.276;2022-12-07T14:55:05;13.00;;;7.63;;
48993;SDS011;34804;49.214;12.276;2022-12-07T14:57:38;13.02;;;7.00;;
48993;SDS011;34804;49.214;12.276;2022-12-07T15:00:05;12.75;;;7.00;;
48993;SDS011;34804;49.214;12.276;2022-12-07T15:02:33;12.65;;;7.20;;
48993;SDS011;34804;49.214;12.276;2022-12-07T15:05:00;11.27;;;6.63;;
48993;SDS011;34804;49.214;12.276;2022-12-07T15:07:28;12.93;;;6.65;;
48993;SDS011;34804;49.214;12.276;2022-12-07T15:09:55;16.48;;;7.43;;
48993;SDS011;34804;49.214;12.276;2022-12-07T15:12:22;13.30;;;6.95;;
48993;SDS011;34804;49.214;12.276;2022-12-07T15:14:51;13.98;;;7.03;;
48993;SDS011;34804;49.214;12.276;2022-12-07T15:17:17;13.43;;;7.50;;
48993;SDS011;34804;49.214;12.276;2022-12-07T15:19:57;13.07;;;6.82;;
48993;SDS011;34804;49.214;12.276;2022-12-07T15:22:24;11.73;;;6.93;;
48993;SDS011;34804;49.214;12.276;2022-12-07T15:24:50;13.07;;;6.93;;
48993;SDS011;34804;49.214;12.276;2022-12-07T15:27:17;13.32;;;7.13;;
48993;SDS011;34804;49.214;12.276;2022-12-07T15:29:44;12.50;;;6.70;;
48993;SDS011;34804;49.214;12.276;2022-12-07T15:32:11;14.07;;;7.43;;
48993;SDS011;34804;49.214;12.276;2022-12-07T15:34:38;13.23;;;6.82;;
48993;SDS011;34804;49.214;12.276;2022-12-07T15:37:06;14.65;;;7.20;;
48993;SDS011;34804;49.214;12.276;2022-12-07T15:39:34;11.55;;;6.63;;
48993;SDS011;34804;49.214;12.276;2022-12-07T15:42:02;13.55;;;7.05;;
48993;SDS011;34804;49.214;12.276;2022-12-07T15:44:29;13.05;;;6.35;;
48993;SDS011;34804;49.214;12.276;2022-12-07T15:47:14;12.77;;;7.00;;
48993;SDS011;34804;49.214;12.276;2022-12-07T15:49:41;11.82;;;6.35;;
48993;SDS011;34804;49.214;12.276;2022-12-07T15:52:08;11.95;;;6.90;;
48993;SDS011;34804;49.214;12.276;2022-12-07T15:54:35;14.25;;;6.55;;
48993;SDS011;34804;49.214;12.276;2022-12-07T15:57:02;13.25;;;6.35;;
48993;SDS011;34804;49.214;12.276;2022-12-07T15:59:29;15.38;;;7.07;;
48993;SDS011;34804;49.214;12.276;2022-12-07T16:01:55;11.77;;;6.78;;
48993;SDS011;34804;49.214;12.276;2022-12-07T16:04:23;13.10;;;7.20;;
48993;SDS011;34804;49.214;12.276;2022-12-07T16:06:50;12.02;;;6.57;;
48993;SDS011;34804;49.214;12.276;2022-12-07T16:09:17;11.13;;;6.07;;
48993;SDS011;34804;49.214;12.276;2022-12-07T16:11:45;12.45;;;6.70;;
48993;SDS011;34804;49.214;12.276;2022-12-07T16:14:12;12.00;;;6.53;;
48993;SDS011;34804;49.214;12.276;2022-12-07T16:16:39;13.73;;;7.22;;
48993;SDS011;34804;49.214;12.276;2022-12-07T16:19:07;13.43;;;7.00;;
48993;SDS011;34804;49.214;12.276;2022-12-07T16:21:34;10.35;;;5.47;;
48993;SDS011;34804;49.214;12.276;2022-12-07T16:24:02;8.60;;;4.82;;
48993;SDS011;34804;49.214;12.276;2022-12-07T16:26:29;9.63;;;4.45;;
48993;SDS011;34804;49.214;12.276;2022-12-07T16:28:56;9.32;;;5.03;;
48993;SDS011;34804;49.214;12.276;2022-12-07T16:31:25;9.70;;;4.95;;
48993;SDS011;34804;49.214;12.276;2022-12-07T16:33:53;8.95;;;4.78;;
48993;SDS011;34804;49.214;12.276;2022-12-07T16:36:22;10.13;;;4.70;;
48993;SDS011;34804;49.214;12.276;2022-12-07T16:39:11;9.68;;;5.68;;
48993;SDS011;34804;49.214;12.276;2022-12-07T16:41:38;11.15;;;5.80;;
48993;SDS011;34804;49.214;12.276;2022-12-07T16:44:06;9.82;;;5.55;;
48993;SDS011;34804;49.214;12.276;2022-12-07T16:46:34;9.48;;;5.75;;
48993;SDS011;34804;49.214;12.276;2022-12-07T16:49:02;9.63;;;5.65;;
48993;SDS011;34804;49.214;12.276;2022-12-07T16:51:30;10.20;;;5.90;;
48993;SDS011;34804;49.214;12.276;2022-12-07T16:53:58;12.23;;;6.72;;
48993;SDS011;34804;49.214;12.276;2022-12-07T16:56:25;11.85;;;6.65;;